createdAt,value
2018-07-03T00:00:17.331Z,80.00
2018-07-03T00:02:46.408Z,81.50
2018-07-03T00:05:15.518Z,82.30
2018-07-03T00:07:44.600Z,83.40
2018-07-03T00:10:13.827Z,85.60
2018-07-03T00:12:42.916Z,87.40
2018-07-03T00:15:12.018Z,87.00
2018-07-03T00:17:41.116Z,88.00
2018-07-03T00:20:10.184Z,88.70
2018-07-03T00:22:39.254Z,88.40
2018-07-03T00:25:08.352Z,88.70
2018-07-03T00:27:37.443Z,88.90
2018-07-03T00:30:06.535Z,88.90
2018-07-03T00:35:04.535Z,89.50
2018-07-03T00:37:33.614Z,90.00
2018-07-03T00:40:02.828Z,90.20
2018-07-03T00:42:31.866Z,90.20
2018-07-03T00:45:00.979Z,90.20
2018-07-03T00:47:30.060Z,90.80
2018-07-03T00:49:59.118Z,91.20
2018-07-03T00:52:28.203Z,91.40
2018-07-03T00:54:57.320Z,92.00
2018-07-03T00:57:26.415Z,92.50
2018-07-03T01:00:06.834Z,93.00
2018-07-03T01:02:35.987Z,93.70
2018-07-03T01:05:05.061Z,93.70
2018-07-03T01:07:34.139Z,94.30
2018-07-03T01:10:03.567Z,95.80
2018-07-03T01:12:32.639Z,96.90
2018-07-03T01:15:01.694Z,97.80
2018-07-03T01:17:31.034Z,98.20
2018-07-03T01:20:00.125Z,98.70
2018-07-03T01:22:29.184Z,99.40
2018-07-03T01:24:58.247Z,99.90
2018-07-03T01:27:27.318Z,99.90
2018-07-03T01:29:56.427Z,99.90
2018-07-03T01:32:25.495Z,99.90
2018-07-03T01:34:54.556Z,99.90
2018-07-03T01:37:23.620Z,99.90
2018-07-03T01:39:52.696Z,99.90
2018-07-03T01:42:21.779Z,99.90
2018-07-03T01:44:50.843Z,99.90
2018-07-03T01:47:19.899Z,99.90
2018-07-03T01:49:48.955Z,99.90
2018-07-03T01:52:18.027Z,99.90
2018-07-03T01:54:47.147Z,99.90
2018-07-03T01:57:16.256Z,99.90
2018-07-03T01:59:45.354Z,99.90
2018-07-03T02:02:14.435Z,99.90
2018-07-03T02:04:43.515Z,99.90
2018-07-03T02:07:12.612Z,99.90
2018-07-03T02:09:41.659Z,99.90
2018-07-03T02:12:10.759Z,99.90
2018-07-03T02:14:39.819Z,99.90
2018-07-03T02:17:08.942Z,99.90
2018-07-03T02:19:38.026Z,99.90
2018-07-03T02:22:07.092Z,99.90
2018-07-03T02:24:36.168Z,99.90
2018-07-03T02:27:05.209Z,99.90
2018-07-03T02:29:34.270Z,99.90
2018-07-03T02:32:03.341Z,99.90
2018-07-03T02:34:32.492Z,99.90
2018-07-03T02:37:01.548Z,99.90
2018-07-03T02:39:30.732Z,99.90
2018-07-03T02:41:59.771Z,99.90
2018-07-03T02:44:28.863Z,99.90
2018-07-03T02:46:57.929Z,99.90
2018-07-03T02:49:33.089Z,99.90
2018-07-03T02:52:02.216Z,99.90
2018-07-03T02:54:31.251Z,99.90
2018-07-03T02:57:00.317Z,99.90
2018-07-03T02:59:29.345Z,99.90
2018-07-03T03:01:58.395Z,99.90
2018-07-03T03:04:27.475Z,99.90
2018-07-03T03:06:56.570Z,99.90
2018-07-03T03:09:25.645Z,99.90
2018-07-03T03:11:54.739Z,99.90
2018-07-03T03:14:23.803Z,99.90
2018-07-03T03:16:52.869Z,99.90
2018-07-03T03:19:21.928Z,99.90
2018-07-03T03:21:50.991Z,99.90
2018-07-03T03:24:20.062Z,99.90
2018-07-03T03:26:49.116Z,99.90
2018-07-03T03:29:18.183Z,99.90
2018-07-03T03:31:47.244Z,99.90
2018-07-03T03:34:16.371Z,99.90
2018-07-03T03:36:45.443Z,99.90
2018-07-03T03:39:14.491Z,99.90
2018-07-03T03:41:43.554Z,99.90
2018-07-03T03:44:12.623Z,99.90
2018-07-03T03:46:41.742Z,99.90
2018-07-03T03:49:10.828Z,99.90
2018-07-03T03:51:39.878Z,99.90
2018-07-03T03:54:08.923Z,99.90
2018-07-03T03:56:37.999Z,99.90
2018-07-03T03:59:07.039Z,99.90
2018-07-03T04:01:36.115Z,99.90
2018-07-03T04:04:05.414Z,99.90
2018-07-03T04:06:34.631Z,99.90
2018-07-03T04:09:04.053Z,99.90
2018-07-03T04:11:33.152Z,99.90
2018-07-03T04:14:02.267Z,99.90
2018-07-03T04:16:31.310Z,99.90
2018-07-03T04:19:00.439Z,99.90
2018-07-03T04:21:29.546Z,99.90
2018-07-03T04:23:58.595Z,99.90
2018-07-03T04:26:27.700Z,99.90
2018-07-03T04:28:56.735Z,99.90
2018-07-03T04:31:25.823Z,99.90
2018-07-03T04:33:54.875Z,99.90
2018-07-03T04:36:24.004Z,99.90
2018-07-03T04:38:53.079Z,99.90
2018-07-03T04:41:22.154Z,99.90
2018-07-03T04:43:51.207Z,99.90
2018-07-03T04:46:20.287Z,99.90
2018-07-03T04:48:49.371Z,99.90
2018-07-03T04:51:18.428Z,99.90
2018-07-03T04:53:47.488Z,99.90
2018-07-03T04:56:16.562Z,99.90
2018-07-03T04:58:45.607Z,99.90
2018-07-03T05:03:43.391Z,99.90
2018-07-03T05:06:12.786Z,99.90
2018-07-03T05:08:41.916Z,99.90
2018-07-03T05:11:10.981Z,99.90
2018-07-03T05:13:40.051Z,99.90
2018-07-03T05:16:09.114Z,99.90
2018-07-03T05:18:38.180Z,99.90
2018-07-03T05:23:35.910Z,99.90
2018-07-03T05:26:05.012Z,99.90
2018-07-03T05:28:34.064Z,99.90
2018-07-03T05:31:03.127Z,99.90
2018-07-03T05:33:32.170Z,99.90
2018-07-03T05:36:01.459Z,99.90
2018-07-03T05:38:30.515Z,99.90
2018-07-03T05:40:59.574Z,99.90
2018-07-03T05:43:28.645Z,99.90
2018-07-03T05:45:57.803Z,99.90
2018-07-03T05:48:26.847Z,99.90
2018-07-03T05:50:55.950Z,99.90
2018-07-03T05:53:25.046Z,99.90
2018-07-03T05:55:54.090Z,99.70
2018-07-03T05:58:23.152Z,99.90
2018-07-03T06:00:52.220Z,99.90
2018-07-03T06:03:21.560Z,99.90
2018-07-03T06:05:50.633Z,99.90
2018-07-03T06:08:19.736Z,99.90
2018-07-03T06:10:48.823Z,99.70
2018-07-03T06:13:17.898Z,99.00
2018-07-03T06:15:46.954Z,99.40
2018-07-03T06:18:16.003Z,99.40
2018-07-03T06:23:13.777Z,98.20
2018-07-03T06:25:42.848Z,97.70
2018-07-03T06:28:11.935Z,97.20
2018-07-03T06:30:40.987Z,96.50
2018-07-03T06:33:10.063Z,96.10
2018-07-03T06:35:39.135Z,95.90
2018-07-03T06:38:08.206Z,95.90
2018-07-03T06:43:05.944Z,95.10
2018-07-03T06:45:34.987Z,95.30
2018-07-03T06:48:04.063Z,94.90
2018-07-03T06:50:33.140Z,94.60
2018-07-03T06:53:02.226Z,94.20
2018-07-03T06:55:31.304Z,93.40
2018-07-03T06:58:00.362Z,93.30
2018-07-03T07:00:29.440Z,92.70
2018-07-03T07:02:58.481Z,92.80
2018-07-03T07:05:27.582Z,92.60
2018-07-03T07:07:56.797Z,92.10
2018-07-03T07:10:26.219Z,91.50
2018-07-03T07:12:55.517Z,90.10
2018-07-03T07:15:24.579Z,88.90
2018-07-03T07:17:53.875Z,89.60
2018-07-03T07:20:23.037Z,88.80
2018-07-03T07:25:20.886Z,87.00
2018-07-03T07:27:50.487Z,85.50
2018-07-03T07:30:19.607Z,84.50
2018-07-03T07:32:48.749Z,84.90
2018-07-03T07:35:18.036Z,83.50
2018-07-03T07:37:47.156Z,80.50
2018-07-03T07:40:16.237Z,78.70
2018-07-03T07:42:45.441Z,77.50
2018-07-03T07:45:14.442Z,78.80
2018-07-03T07:47:43.482Z,78.90
2018-07-03T07:50:12.571Z,76.50
2018-07-03T07:52:41.648Z,75.60
2018-07-03T07:55:10.751Z,74.60
2018-07-03T07:57:39.845Z,73.80
2018-07-03T08:00:09.040Z,73.10
2018-07-03T08:02:38.158Z,71.80
2018-07-03T08:05:07.377Z,71.20
2018-07-03T08:07:36.454Z,69.80
2018-07-03T08:10:05.759Z,69.00
2018-07-03T08:12:34.927Z,68.30
2018-07-03T08:15:04.198Z,67.90
2018-07-03T08:17:33.365Z,68.00
2018-07-03T08:20:02.386Z,67.30
2018-07-03T08:22:31.566Z,65.50
2018-07-03T08:25:00.637Z,64.20
2018-07-03T08:27:29.712Z,64.20
2018-07-03T08:29:58.763Z,64.00
2018-07-03T08:32:28.086Z,62.10
2018-07-03T08:34:57.455Z,61.30
2018-07-03T08:37:26.517Z,62.50
2018-07-03T08:39:55.605Z,61.80
2018-07-03T08:42:24.677Z,62.40
2018-07-03T08:44:53.819Z,61.70
2018-07-03T08:47:22.911Z,61.80
2018-07-03T08:49:51.979Z,61.00
2018-07-03T08:52:21.044Z,59.90
2018-07-03T08:54:50.147Z,59.30
2018-07-03T08:57:19.275Z,56.10
2018-07-03T08:59:48.370Z,57.10
2018-07-03T09:02:17.446Z,56.70
2018-07-03T09:04:46.605Z,56.20
2018-07-03T09:07:15.744Z,53.80
2018-07-03T09:09:44.827Z,55.90
2018-07-03T09:12:13.964Z,56.00
2018-07-03T09:14:43.291Z,56.30
2018-07-03T09:17:17.827Z,55.50
2018-07-03T09:19:47.084Z,53.70
2018-07-03T09:22:16.188Z,52.50
2018-07-03T09:24:45.244Z,52.40
2018-07-03T09:27:17.508Z,51.20
2018-07-03T09:29:46.597Z,51.40
2018-07-03T09:32:15.780Z,51.70
2018-07-03T09:34:44.891Z,52.00
2018-07-03T09:37:13.984Z,51.60
2018-07-03T09:39:43.078Z,51.40
2018-07-03T09:42:12.428Z,51.20
2018-07-03T09:44:41.509Z,51.00
2018-07-03T09:47:10.603Z,51.50
2018-07-03T09:49:39.690Z,50.90
2018-07-03T09:52:09.135Z,50.80
2018-07-03T09:54:38.390Z,50.60
2018-07-03T09:57:07.716Z,50.50
2018-07-03T10:02:06.112Z,51.40
2018-07-03T10:04:35.332Z,51.70
2018-07-03T10:07:04.606Z,51.10
2018-07-03T10:09:33.896Z,50.80
2018-07-03T10:12:03.054Z,50.10
2018-07-03T10:14:32.274Z,50.50
2018-07-03T10:17:01.478Z,50.40
2018-07-03T10:19:30.614Z,50.10
2018-07-03T10:21:59.748Z,48.50
2018-07-03T10:24:28.948Z,48.40
2018-07-03T10:26:58.054Z,48.80
2018-07-03T10:29:27.176Z,48.70
2018-07-03T10:31:56.607Z,49.90
2018-07-03T10:34:25.729Z,50.60
2018-07-03T10:36:54.876Z,50.40
2018-07-03T10:39:23.950Z,50.10
2018-07-03T10:41:53.019Z,50.70
2018-07-03T10:44:22.078Z,50.30
2018-07-03T10:46:51.143Z,49.50
2018-07-03T10:49:20.199Z,50.00
2018-07-03T10:51:49.331Z,50.00
2018-07-03T10:54:18.394Z,49.50
2018-07-03T10:56:48.243Z,49.20
2018-07-03T10:59:17.372Z,49.50
2018-07-03T11:01:46.459Z,49.10
2018-07-03T11:04:15.515Z,49.10
2018-07-03T11:06:44.594Z,49.60
2018-07-03T11:09:13.703Z,49.40
2018-07-03T11:11:42.759Z,49.20
2018-07-03T11:14:11.815Z,49.50
2018-07-03T11:16:40.878Z,50.00
2018-07-03T11:19:10.123Z,49.80
2018-07-03T11:21:39.174Z,49.50
2018-07-03T11:24:08.847Z,50.10
2018-07-03T11:26:38.865Z,49.60
2018-07-03T11:29:10.482Z,49.80
2018-07-03T11:31:39.667Z,49.50
2018-07-03T11:34:08.944Z,48.80
2018-07-03T11:36:38.009Z,48.10
2018-07-03T11:39:08.025Z,48.50
2018-07-03T11:41:37.241Z,48.20
2018-07-03T11:44:06.411Z,47.10
2018-07-03T11:46:35.478Z,46.70
2018-07-03T11:49:04.556Z,47.50
2018-07-03T11:51:33.663Z,46.50
2018-07-03T11:54:02.709Z,46.40
2018-07-03T11:56:31.814Z,45.90
2018-07-03T11:59:00.895Z,46.10
2018-07-03T12:01:30.113Z,46.80
2018-07-03T12:03:59.102Z,46.70
2018-07-03T12:06:28.215Z,46.00
2018-07-03T12:08:57.293Z,45.90
2018-07-03T12:11:26.420Z,46.60
2018-07-03T12:13:55.544Z,46.10
2018-07-03T12:16:24.616Z,46.20
2018-07-03T12:18:59.403Z,46.20
2018-07-03T12:21:29.013Z,45.90
2018-07-03T12:23:58.731Z,45.60
2018-07-03T12:26:27.792Z,44.80
2018-07-03T12:28:56.896Z,45.20
2018-07-03T12:31:25.959Z,44.50
2018-07-03T12:33:55.154Z,44.60
2018-07-03T12:36:24.215Z,44.50
2018-07-03T12:38:53.271Z,43.60
2018-07-03T12:41:22.331Z,43.20
2018-07-03T12:43:52.023Z,43.40
2018-07-03T12:46:21.075Z,43.70
2018-07-03T12:48:50.131Z,43.60
2018-07-03T12:51:19.796Z,43.00
2018-07-03T12:53:48.862Z,43.10
2018-07-03T12:56:17.900Z,43.30
2018-07-03T12:58:46.991Z,42.50
2018-07-03T13:01:16.131Z,42.40
2018-07-03T13:03:45.188Z,42.30
2018-07-03T13:06:14.277Z,43.10
2018-07-03T13:08:43.395Z,43.10
2018-07-03T13:11:12.491Z,42.60
2018-07-03T13:13:41.583Z,42.30
2018-07-03T13:16:10.642Z,42.70
2018-07-03T13:18:39.897Z,42.70
2018-07-03T13:21:08.992Z,42.30
2018-07-03T13:23:38.023Z,42.30
2018-07-03T13:26:07.179Z,42.20
2018-07-03T13:28:36.289Z,42.30
2018-07-03T13:31:05.476Z,42.00
2018-07-03T13:33:34.530Z,41.80
2018-07-03T13:36:03.639Z,42.10
2018-07-03T13:38:32.745Z,41.70
2018-07-03T13:41:02.110Z,41.90
2018-07-03T13:43:31.192Z,42.00
2018-07-03T13:46:00.281Z,41.60
2018-07-03T13:48:29.416Z,41.90
2018-07-03T13:50:58.414Z,41.80
2018-07-03T13:53:27.460Z,42.50
2018-07-03T13:55:56.527Z,42.00
2018-07-03T13:58:25.599Z,41.90
2018-07-03T14:00:54.671Z,42.30
2018-07-03T14:03:23.750Z,42.10
2018-07-03T14:05:52.803Z,41.90
2018-07-03T14:08:21.883Z,41.20
2018-07-03T14:10:50.948Z,41.20
2018-07-03T14:13:20.035Z,40.90
2018-07-03T14:15:49.120Z,40.30
2018-07-03T14:20:51.655Z,41.10
2018-07-03T14:23:20.738Z,41.20
2018-07-03T14:25:49.877Z,41.20
2018-07-03T14:28:18.917Z,41.30
2018-07-03T14:30:47.991Z,41.50
2018-07-03T14:33:17.109Z,41.10
2018-07-03T14:35:46.334Z,40.80
2018-07-03T14:38:15.387Z,41.00
2018-07-03T14:40:44.488Z,40.90
2018-07-03T14:43:13.638Z,40.60
2018-07-03T14:45:42.687Z,41.30
2018-07-03T14:48:11.767Z,40.70
2018-07-03T14:50:40.878Z,39.50
2018-07-03T14:53:09.924Z,39.40
2018-07-03T14:55:38.983Z,38.90
2018-07-03T14:58:08.082Z,38.70
2018-07-03T15:00:37.150Z,38.10
2018-07-03T15:03:06.595Z,37.70
2018-07-03T15:05:35.752Z,37.30
2018-07-03T15:08:04.840Z,37.40
2018-07-03T15:10:33.899Z,38.30
2018-07-03T15:13:04.158Z,38.60
2018-07-03T15:15:33.351Z,38.30
2018-07-03T15:18:02.414Z,38.40
2018-07-03T15:20:31.512Z,37.70
2018-07-03T15:23:00.565Z,38.30
2018-07-03T15:25:29.657Z,36.80
2018-07-03T15:27:58.762Z,35.60
2018-07-03T15:30:27.907Z,35.30
2018-07-03T15:32:57.008Z,34.80
2018-07-03T15:35:28.124Z,33.00
2018-07-03T15:37:57.370Z,32.80
2018-07-03T15:40:26.431Z,33.00
2018-07-03T15:42:55.506Z,32.80
2018-07-03T15:45:24.555Z,32.70
2018-07-03T15:47:53.639Z,32.00
2018-07-03T15:52:51.422Z,30.70
2018-07-03T15:55:20.522Z,29.90
2018-07-03T16:00:18.354Z,28.80
2018-07-03T16:02:58.991Z,28.70
2018-07-03T16:05:39.514Z,28.30
2018-07-03T16:08:20.132Z,27.50
2018-07-03T16:13:17.955Z,26.80
2018-07-03T16:15:47.084Z,26.80
2018-07-03T16:18:16.181Z,26.70
2018-07-03T16:20:45.248Z,26.90
2018-07-03T16:23:14.337Z,26.10
2018-07-03T16:25:43.432Z,25.20
2018-07-03T16:28:12.499Z,25.50
2018-07-03T16:30:41.601Z,25.50
2018-07-03T16:33:10.689Z,25.10
2018-07-03T16:35:39.858Z,25.00
2018-07-03T16:38:09.144Z,25.10
2018-07-03T16:40:38.245Z,24.90
2018-07-03T16:43:07.528Z,24.80
2018-07-03T16:45:36.817Z,24.30
2018-07-03T16:48:05.876Z,23.50
2018-07-03T16:50:34.930Z,23.10
2018-07-03T16:53:04.094Z,22.80
2018-07-03T16:55:33.310Z,23.10
2018-07-03T16:58:02.498Z,23.40
2018-07-03T17:00:31.820Z,22.90
2018-07-03T17:03:00.959Z,23.10
2018-07-03T17:05:30.400Z,23.40
2018-07-03T17:07:59.536Z,22.60
2018-07-03T17:10:28.698Z,22.90
2018-07-03T17:12:57.983Z,22.50
2018-07-03T17:15:27.127Z,22.20
2018-07-03T17:17:56.253Z,22.30
2018-07-03T17:20:25.389Z,21.90
2018-07-03T17:22:54.450Z,22.20
2018-07-03T17:25:23.644Z,22.20
2018-07-03T17:30:21.528Z,21.60
2018-07-03T17:32:50.663Z,21.20
2018-07-03T17:37:48.415Z,21.80
2018-07-03T17:40:28.820Z,22.10
2018-07-03T17:43:23.231Z,22.40
2018-07-03T17:46:04.853Z,22.40
2018-07-03T17:48:34.041Z,21.80
2018-07-03T17:51:03.255Z,22.30
2018-07-03T17:53:32.317Z,22.00
2018-07-03T17:56:01.403Z,22.20
2018-07-03T17:58:30.532Z,22.30
2018-07-03T18:00:59.609Z,22.20
2018-07-03T18:03:28.690Z,22.20
2018-07-03T18:05:57.796Z,22.60
2018-07-03T18:10:55.716Z,24.10
2018-07-03T18:13:24.758Z,24.80
2018-07-03T18:15:53.839Z,25.60
2018-07-03T18:18:23.098Z,26.30
2018-07-03T18:20:52.015Z,26.90
2018-07-03T18:23:21.079Z,27.50
2018-07-03T18:25:50.312Z,28.20
2018-07-03T18:28:19.371Z,28.60
2018-07-03T18:30:48.410Z,29.00
2018-07-03T18:33:17.498Z,29.50
2018-07-03T18:38:15.287Z,30.50
2018-07-03T18:40:44.442Z,30.60
2018-07-03T18:43:13.573Z,30.90
2018-07-03T18:45:42.628Z,31.30
2018-07-03T18:48:11.695Z,31.70
2018-07-03T18:50:40.757Z,32.00
2018-07-03T18:53:09.822Z,32.40
2018-07-03T18:55:38.907Z,32.70
2018-07-03T18:58:07.978Z,33.00
2018-07-03T19:00:37.340Z,33.20
2018-07-03T19:05:35.076Z,34.10
2018-07-03T19:08:04.235Z,34.40
2018-07-03T19:10:33.218Z,34.70
2018-07-03T19:13:02.296Z,35.40
2018-07-03T19:15:31.403Z,35.40
2018-07-03T19:18:00.522Z,35.80
2018-07-03T19:20:29.617Z,36.00
2018-07-03T19:22:58.696Z,36.20
2018-07-03T19:25:27.787Z,36.90
2018-07-03T19:27:56.873Z,36.90
2018-07-03T19:30:25.978Z,37.40
2018-07-03T19:32:55.067Z,37.60
2018-07-03T19:35:24.179Z,38.10
2018-07-03T19:37:53.290Z,38.40
2018-07-03T19:40:22.331Z,38.50
2018-07-03T19:43:33.443Z,38.90
2018-07-03T19:46:03.048Z,39.10
2018-07-03T19:48:32.123Z,39.40
2018-07-03T19:51:01.279Z,39.90
2018-07-03T19:53:30.311Z,40.10
2018-07-03T19:56:00.035Z,40.50
2018-07-03T19:58:29.103Z,40.90
2018-07-03T20:00:58.175Z,41.10
2018-07-03T20:03:27.206Z,41.60
2018-07-03T20:05:56.349Z,41.70
2018-07-03T20:08:25.423Z,42.70
2018-07-03T20:10:54.895Z,42.40
2018-07-03T20:15:52.801Z,43.10
2018-07-03T20:18:21.875Z,43.50
2018-07-03T20:20:50.930Z,43.70
2018-07-03T20:23:20.055Z,44.20
2018-07-03T20:25:49.084Z,44.70
2018-07-03T20:28:18.170Z,45.10
2018-07-03T20:30:47.280Z,45.30
2018-07-03T20:33:16.329Z,45.90
2018-07-03T20:35:45.411Z,46.20
2018-07-03T20:38:14.473Z,46.80
2018-07-03T20:40:51.854Z,48.00
2018-07-03T20:43:20.923Z,50.40
2018-07-03T20:45:49.971Z,53.10
2018-07-03T20:48:19.036Z,54.20
2018-07-03T20:50:48.452Z,55.60
2018-07-03T20:53:17.586Z,57.40
2018-07-03T20:55:47.581Z,59.50
2018-07-03T20:58:16.680Z,61.30
2018-07-03T21:03:14.452Z,66.10
2018-07-03T21:05:43.824Z,68.70
2018-07-03T21:08:12.861Z,71.50
2018-07-03T21:10:42.167Z,73.60
2018-07-03T21:13:11.327Z,75.80
2018-07-03T21:15:40.544Z,78.00
2018-07-03T21:18:09.719Z,79.50
2018-07-03T21:20:38.951Z,81.70
2018-07-03T21:23:08.082Z,83.40
2018-07-03T21:25:37.208Z,85.10
2018-07-03T21:28:06.405Z,87.20
2018-07-03T21:30:35.544Z,88.50
2018-07-03T21:33:04.632Z,90.20
2018-07-03T21:35:33.684Z,90.80
2018-07-03T21:38:02.733Z,91.60
2018-07-03T21:40:31.788Z,92.40
2018-07-03T21:43:00.940Z,93.10
2018-07-03T21:45:30.007Z,93.90
2018-07-03T21:47:59.111Z,94.30
2018-07-03T21:50:28.163Z,95.10
2018-07-03T21:52:57.271Z,95.60
2018-07-03T21:55:26.317Z,96.20
2018-07-03T21:57:55.418Z,97.00
2018-07-03T22:00:35.079Z,97.50
2018-07-03T22:03:05.624Z,98.30
2018-07-03T22:05:34.912Z,98.70
2018-07-03T22:08:04.363Z,99.20
2018-07-03T22:10:33.818Z,99.50
2018-07-03T22:13:03.129Z,99.90
2018-07-03T22:15:32.531Z,99.90
2018-07-03T22:18:01.593Z,99.90
2018-07-03T22:20:30.672Z,99.90
2018-07-03T22:22:59.760Z,99.90
2018-07-03T22:25:28.826Z,99.90
2018-07-03T22:27:57.965Z,99.90
2018-07-03T22:30:27.039Z,99.90
2018-07-03T22:32:56.098Z,99.90
2018-07-03T22:35:25.196Z,99.90
2018-07-03T22:37:54.239Z,99.90
2018-07-03T22:40:23.299Z,99.90
2018-07-03T22:42:52.380Z,99.90
2018-07-03T22:45:21.467Z,99.90
2018-07-03T22:47:50.549Z,99.90
2018-07-03T22:50:19.585Z,99.90
2018-07-03T22:52:48.679Z,99.90
2018-07-03T22:55:17.763Z,99.90
2018-07-03T22:57:46.811Z,99.90
2018-07-03T23:00:16.447Z,99.90
2018-07-03T23:02:45.535Z,99.90
2018-07-03T23:05:14.584Z,99.90
2018-07-03T23:07:43.682Z,99.90
2018-07-03T23:12:41.531Z,99.90
2018-07-03T23:15:10.777Z,99.90
2018-07-03T23:20:08.570Z,99.90
2018-07-03T23:22:37.696Z,99.90
2018-07-03T23:25:07.287Z,99.90
2018-07-03T23:27:36.359Z,99.90
2018-07-03T23:30:05.428Z,99.90
2018-07-03T23:32:34.750Z,99.90
2018-07-03T23:35:03.871Z,99.90
2018-07-03T23:37:32.939Z,99.90
2018-07-03T23:40:02.007Z,99.90
2018-07-03T23:42:31.052Z,99.90
2018-07-03T23:45:00.131Z,99.90
2018-07-03T23:47:40.994Z,99.90
2018-07-03T23:50:21.404Z,99.90
2018-07-03T23:53:01.967Z,99.90
2018-07-03T23:55:42.219Z,99.90
2018-07-03T23:58:22.608Z,99.90
